Terminal Aerodrome Forecast
Issued by NWS Nashville, TN

Home | Current Version | Previous Version | Text Only | Print | Product List | Glossary On
Versions: 1 2 3 4 5 6 7 8 9 10 11 12 13 14 15 16 17
759
FTUS44 KOHX 090413 AAA
TAFBNA
TAF AMD
KBNA 090413Z 0904/0924 31008KT 2SM -SN BR BKN017 BKN025 OVC045
     FM090600 31008KT 3SM -SN BR BKN015 OVC025
     FM091100 30008G18KT 3SM -SN BR OVC025=

USA.gov is the U.S. government's official web portal to all federal, state and local government web resources and services.